sensor_id;sensor_type;location;lat;lon;timestamp;P1;durP1;ratioP1;P2;durP2;ratioP2
19221;SDS011;9745;50.828;4.378;2023-07-22T00:02:17;10.87;;;8.07;;
19221;SDS011;9745;50.828;4.378;2023-07-22T00:04:43;13.27;;;8.07;;
19221;SDS011;9745;50.828;4.378;2023-07-22T00:07:09;12.87;;;7.83;;
19221;SDS011;9745;50.828;4.378;2023-07-22T00:09:35;11.80;;;8.07;;
19221;SDS011;9745;50.828;4.378;2023-07-22T00:12:01;13.73;;;7.30;;
19221;SDS011;9745;50.828;4.378;2023-07-22T00:14:27;13.73;;;7.63;;
19221;SDS011;9745;50.828;4.378;2023-07-22T00:16:55;13.63;;;7.77;;
19221;SDS011;9745;50.828;4.378;2023-07-22T00:19:21;15.07;;;8.20;;
19221;SDS011;9745;50.828;4.378;2023-07-22T00:21:48;12.43;;;7.37;;
19221;SDS011;9745;50.828;4.378;2023-07-22T00:24:14;11.90;;;7.77;;
19221;SDS011;9745;50.828;4.378;2023-07-22T00:26:40;10.87;;;7.70;;
19221;SDS011;9745;50.828;4.378;2023-07-22T00:29:07;14.20;;;8.77;;
19221;SDS011;9745;50.828;4.378;2023-07-22T00:31:33;12.07;;;7.73;;
19221;SDS011;9745;50.828;4.378;2023-07-22T00:33:59;13.60;;;7.97;;
19221;SDS011;9745;50.828;4.378;2023-07-22T00:36:25;12.47;;;7.90;;
19221;SDS011;9745;50.828;4.378;2023-07-22T00:38:52;14.43;;;7.60;;
19221;SDS011;9745;50.828;4.378;2023-07-22T00:41:18;10.53;;;7.30;;
19221;SDS011;9745;50.828;4.378;2023-07-22T00:43:45;12.67;;;7.83;;
19221;SDS011;9745;50.828;4.378;2023-07-22T00:46:13;10.30;;;7.27;;
19221;SDS011;9745;50.828;4.378;2023-07-22T00:48:39;14.50;;;8.80;;
19221;SDS011;9745;50.828;4.378;2023-07-22T00:51:05;11.73;;;8.00;;
19221;SDS011;9745;50.828;4.378;2023-07-22T00:53:31;13.23;;;8.33;;
19221;SDS011;9745;50.828;4.378;2023-07-22T00:55:57;12.60;;;8.57;;
19221;SDS011;9745;50.828;4.378;2023-07-22T00:58:23;12.83;;;8.27;;
19221;SDS011;9745;50.828;4.378;2023-07-22T01:00:49;14.67;;;8.90;;
19221;SDS011;9745;50.828;4.378;2023-07-22T01:03:15;11.80;;;7.77;;
19221;SDS011;9745;50.828;4.378;2023-07-22T01:05:41;12.50;;;7.83;;
19221;SDS011;9745;50.828;4.378;2023-07-22T01:08:07;13.33;;;7.63;;
19221;SDS011;9745;50.828;4.378;2023-07-22T01:10:33;12.80;;;7.87;;
19221;SDS011;9745;50.828;4.378;2023-07-22T01:12:59;11.63;;;7.50;;
19221;SDS011;9745;50.828;4.378;2023-07-22T01:15:25;13.50;;;8.27;;
19221;SDS011;9745;50.828;4.378;2023-07-22T01:17:51;12.23;;;7.47;;
19221;SDS011;9745;50.828;4.378;2023-07-22T01:20:19;12.87;;;8.47;;
19221;SDS011;9745;50.828;4.378;2023-07-22T01:22:51;12.53;;;8.07;;
19221;SDS011;9745;50.828;4.378;2023-07-22T01:25:18;17.47;;;8.40;;
19221;SDS011;9745;50.828;4.378;2023-07-22T01:27:46;13.60;;;8.23;;
19221;SDS011;9745;50.828;4.378;2023-07-22T01:30:12;15.77;;;8.67;;
19221;SDS011;9745;50.828;4.378;2023-07-22T01:32:39;16.67;;;8.83;;
19221;SDS011;9745;50.828;4.378;2023-07-22T01:35:05;13.17;;;8.30;;
19221;SDS011;9745;50.828;4.378;2023-07-22T01:37:32;16.50;;;8.53;;
19221;SDS011;9745;50.828;4.378;2023-07-22T01:39:58;13.90;;;8.73;;
19221;SDS011;9745;50.828;4.378;2023-07-22T01:42:24;14.57;;;8.47;;
19221;SDS011;9745;50.828;4.378;2023-07-22T01:44:50;12.50;;;8.43;;
19221;SDS011;9745;50.828;4.378;2023-07-22T01:47:16;15.37;;;8.47;;
19221;SDS011;9745;50.828;4.378;2023-07-22T01:49:43;16.40;;;8.70;;
19221;SDS011;9745;50.828;4.378;2023-07-22T01:52:10;15.30;;;9.57;;
19221;SDS011;9745;50.828;4.378;2023-07-22T01:54:35;15.13;;;8.77;;
19221;SDS011;9745;50.828;4.378;2023-07-22T01:57:01;17.70;;;9.43;;
19221;SDS011;9745;50.828;4.378;2023-07-22T01:59:27;13.17;;;8.37;;
19221;SDS011;9745;50.828;4.378;2023-07-22T02:01:53;16.90;;;9.80;;
19221;SDS011;9745;50.828;4.378;2023-07-22T02:04:19;17.37;;;9.30;;
19221;SDS011;9745;50.828;4.378;2023-07-22T02:06:46;15.83;;;8.57;;
19221;SDS011;9745;50.828;4.378;2023-07-22T02:09:12;16.50;;;8.37;;
19221;SDS011;9745;50.828;4.378;2023-07-22T02:11:38;14.57;;;8.30;;
19221;SDS011;9745;50.828;4.378;2023-07-22T02:14:04;16.07;;;8.20;;
19221;SDS011;9745;50.828;4.378;2023-07-22T02:16:36;14.30;;;9.23;;
19221;SDS011;9745;50.828;4.378;2023-07-22T02:19:03;17.23;;;8.93;;
19221;SDS011;9745;50.828;4.378;2023-07-22T02:21:29;16.73;;;8.53;;
19221;SDS011;9745;50.828;4.378;2023-07-22T02:23:55;15.57;;;9.20;;
19221;SDS011;9745;50.828;4.378;2023-07-22T02:26:21;17.33;;;9.60;;
19221;SDS011;9745;50.828;4.378;2023-07-22T02:28:47;15.83;;;9.93;;
19221;SDS011;9745;50.828;4.378;2023-07-22T02:31:13;17.90;;;9.67;;
19221;SDS011;9745;50.828;4.378;2023-07-22T02:33:39;18.90;;;9.77;;
19221;SDS011;9745;50.828;4.378;2023-07-22T02:36:05;17.00;;;9.47;;
19221;SDS011;9745;50.828;4.378;2023-07-22T02:38:32;20.50;;;9.73;;
19221;SDS011;9745;50.828;4.378;2023-07-22T02:41:01;16.53;;;10.20;;
19221;SDS011;9745;50.828;4.378;2023-07-22T02:43:28;21.83;;;10.47;;
19221;SDS011;9745;50.828;4.378;2023-07-22T02:45:54;17.23;;;10.40;;
19221;SDS011;9745;50.828;4.378;2023-07-22T02:48:20;20.23;;;10.67;;
19221;SDS011;9745;50.828;4.378;2023-07-22T02:50:46;19.70;;;10.80;;
19221;SDS011;9745;50.828;4.378;2023-07-22T02:53:12;19.83;;;11.17;;
19221;SDS011;9745;50.828;4.378;2023-07-22T02:55:38;20.73;;;10.73;;
19221;SDS011;9745;50.828;4.378;2023-07-22T02:58:04;22.57;;;10.73;;
19221;SDS011;9745;50.828;4.378;2023-07-22T03:00:31;19.93;;;11.33;;
19221;SDS011;9745;50.828;4.378;2023-07-22T03:02:57;17.67;;;10.10;;
19221;SDS011;9745;50.828;4.378;2023-07-22T03:05:29;19.97;;;10.73;;
19221;SDS011;9745;50.828;4.378;2023-07-22T03:07:55;21.20;;;12.17;;
19221;SDS011;9745;50.828;4.378;2023-07-22T03:10:23;20.50;;;11.93;;
19221;SDS011;9745;50.828;4.378;2023-07-22T03:12:54;25.47;;;11.23;;
19221;SDS011;9745;50.828;4.378;2023-07-22T03:15:24;20.13;;;11.70;;
19221;SDS011;9745;50.828;4.378;2023-07-22T03:17:53;23.10;;;10.90;;
19221;SDS011;9745;50.828;4.378;2023-07-22T03:20:20;22.83;;;11.10;;
19221;SDS011;9745;50.828;4.378;2023-07-22T03:22:47;22.50;;;11.20;;
19221;SDS011;9745;50.828;4.378;2023-07-22T03:25:15;18.60;;;11.30;;
19221;SDS011;9745;50.828;4.378;2023-07-22T03:27:45;23.70;;;10.50;;
19221;SDS011;9745;50.828;4.378;2023-07-22T03:30:15;21.00;;;11.20;;
19221;SDS011;9745;50.828;4.378;2023-07-22T03:32:45;22.97;;;11.53;;
19221;SDS011;9745;50.828;4.378;2023-07-22T03:35:12;18.07;;;11.27;;
19221;SDS011;9745;50.828;4.378;2023-07-22T03:37:39;17.77;;;11.47;;
19221;SDS011;9745;50.828;4.378;2023-07-22T03:40:05;18.90;;;10.80;;
19221;SDS011;9745;50.828;4.378;2023-07-22T03:42:52;18.83;;;10.43;;
19221;SDS011;9745;50.828;4.378;2023-07-22T03:45:19;18.17;;;10.80;;
19221;SDS011;9745;50.828;4.378;2023-07-22T03:47:46;20.40;;;11.57;;
19221;SDS011;9745;50.828;4.378;2023-07-22T03:50:12;23.27;;;10.03;;
19221;SDS011;9745;50.828;4.378;2023-07-22T03:52:38;26.37;;;11.20;;
19221;SDS011;9745;50.828;4.378;2023-07-22T03:55:04;21.87;;;12.57;;
19221;SDS011;9745;50.828;4.378;2023-07-22T03:57:31;21.70;;;10.30;;
19221;SDS011;9745;50.828;4.378;2023-07-22T03:59:57;26.00;;;10.87;;
19221;SDS011;9745;50.828;4.378;2023-07-22T04:02:23;20.97;;;10.17;;
19221;SDS011;9745;50.828;4.378;2023-07-22T04:04:53;19.03;;;10.37;;
19221;SDS011;9745;50.828;4.378;2023-07-22T04:07:19;20.77;;;10.03;;
19221;SDS011;9745;50.828;4.378;2023-07-22T04:09:45;17.63;;;9.67;;
19221;SDS011;9745;50.828;4.378;2023-07-22T04:12:11;20.47;;;9.97;;
19221;SDS011;9745;50.828;4.378;2023-07-22T04:14:38;18.43;;;9.33;;
19221;SDS011;9745;50.828;4.378;2023-07-22T04:17:04;18.90;;;9.63;;
19221;SDS011;9745;50.828;4.378;2023-07-22T04:19:30;18.13;;;9.93;;
19221;SDS011;9745;50.828;4.378;2023-07-22T04:21:56;19.50;;;9.40;;
19221;SDS011;9745;50.828;4.378;2023-07-22T04:24:22;17.73;;;9.60;;
19221;SDS011;9745;50.828;4.378;2023-07-22T04:26:50;18.03;;;10.30;;
19221;SDS011;9745;50.828;4.378;2023-07-22T04:29:16;21.50;;;10.20;;
19221;SDS011;9745;50.828;4.378;2023-07-22T04:31:42;21.33;;;10.03;;
19221;SDS011;9745;50.828;4.378;2023-07-22T04:34:08;20.63;;;9.63;;
19221;SDS011;9745;50.828;4.378;2023-07-22T04:36:36;19.53;;;10.50;;
19221;SDS011;9745;50.828;4.378;2023-07-22T04:39:02;19.30;;;9.33;;
19221;SDS011;9745;50.828;4.378;2023-07-22T04:41:30;20.80;;;9.50;;
19221;SDS011;9745;50.828;4.378;2023-07-22T04:43:56;20.03;;;9.03;;
19221;SDS011;9745;50.828;4.378;2023-07-22T04:46:23;22.07;;;10.53;;
19221;SDS011;9745;50.828;4.378;2023-07-22T04:48:49;14.73;;;8.37;;
19221;SDS011;9745;50.828;4.378;2023-07-22T04:51:15;23.03;;;10.10;;
19221;SDS011;9745;50.828;4.378;2023-07-22T04:53:41;24.13;;;9.40;;
19221;SDS011;9745;50.828;4.378;2023-07-22T04:56:07;19.83;;;9.47;;
19221;SDS011;9745;50.828;4.378;2023-07-22T04:58:33;16.43;;;9.80;;
19221;SDS011;9745;50.828;4.378;2023-07-22T05:00:59;15.13;;;8.33;;
19221;SDS011;9745;50.828;4.378;2023-07-22T05:03:25;17.97;;;9.13;;
19221;SDS011;9745;50.828;4.378;2023-07-22T05:05:53;23.03;;;9.87;;
19221;SDS011;9745;50.828;4.378;2023-07-22T05:08:19;15.17;;;9.27;;
19221;SDS011;9745;50.828;4.378;2023-07-22T05:10:46;15.40;;;8.83;;
19221;SDS011;9745;50.828;4.378;2023-07-22T05:13:12;13.53;;;8.50;;
19221;SDS011;9745;50.828;4.378;2023-07-22T05:15:38;17.70;;;9.37;;
19221;SDS011;9745;50.828;4.378;2023-07-22T05:18:04;15.87;;;9.87;;
19221;SDS011;9745;50.828;4.378;2023-07-22T05:20:30;20.97;;;9.00;;
19221;SDS011;9745;50.828;4.378;2023-07-22T05:22:55;18.33;;;9.47;;
19221;SDS011;9745;50.828;4.378;2023-07-22T05:25:21;17.33;;;8.67;;
19221;SDS011;9745;50.828;4.378;2023-07-22T05:27:48;18.20;;;8.23;;
19221;SDS011;9745;50.828;4.378;2023-07-22T05:30:14;16.70;;;8.23;;
19221;SDS011;9745;50.828;4.378;2023-07-22T05:32:40;17.87;;;8.17;;
19221;SDS011;9745;50.828;4.378;2023-07-22T05:35:06;13.43;;;8.10;;
19221;SDS011;9745;50.828;4.378;2023-07-22T05:37:32;13.83;;;8.03;;
19221;SDS011;9745;50.828;4.378;2023-07-22T05:39:58;12.97;;;7.47;;
19221;SDS011;9745;50.828;4.378;2023-07-22T05:42:25;15.50;;;7.53;;
19221;SDS011;9745;50.828;4.378;2023-07-22T05:44:51;17.73;;;7.33;;
19221;SDS011;9745;50.828;4.378;2023-07-22T05:47:17;12.07;;;6.60;;
19221;SDS011;9745;50.828;4.378;2023-07-22T05:49:43;17.43;;;7.40;;
19221;SDS011;9745;50.828;4.378;2023-07-22T05:52:09;12.90;;;6.47;;
19221;SDS011;9745;50.828;4.378;2023-07-22T05:54:35;14.27;;;7.43;;
19221;SDS011;9745;50.828;4.378;2023-07-22T05:57:01;15.77;;;6.57;;
19221;SDS011;9745;50.828;4.378;2023-07-22T05:59:28;12.53;;;6.37;;
19221;SDS011;9745;50.828;4.378;2023-07-22T06:01:54;16.63;;;6.90;;
19221;SDS011;9745;50.828;4.378;2023-07-22T06:04:22;10.63;;;6.03;;
19221;SDS011;9745;50.828;4.378;2023-07-22T06:06:48;12.17;;;5.97;;
19221;SDS011;9745;50.828;4.378;2023-07-22T06:09:14;9.97;;;5.63;;
19221;SDS011;9745;50.828;4.378;2023-07-22T06:11:40;11.10;;;5.90;;
19221;SDS011;9745;50.828;4.378;2023-07-22T06:14:08;14.70;;;6.73;;
19221;SDS011;9745;50.828;4.378;2023-07-22T06:16:34;11.13;;;6.17;;
19221;SDS011;9745;50.828;4.378;2023-07-22T06:19:00;13.23;;;6.10;;
19221;SDS011;9745;50.828;4.378;2023-07-22T06:21:26;10.03;;;5.97;;
19221;SDS011;9745;50.828;4.378;2023-07-22T06:23:52;12.63;;;5.70;;
19221;SDS011;9745;50.828;4.378;2023-07-22T06:26:18;13.77;;;6.07;;
19221;SDS011;9745;50.828;4.378;2023-07-22T06:28:44;13.27;;;5.80;;
19221;SDS011;9745;50.828;4.378;2023-07-22T06:31:10;9.97;;;5.13;;
19221;SDS011;9745;50.828;4.378;2023-07-22T06:33:36;12.23;;;5.57;;
19221;SDS011;9745;50.828;4.378;2023-07-22T06:36:02;12.90;;;6.13;;
19221;SDS011;9745;50.828;4.378;2023-07-22T06:38:28;12.73;;;6.20;;
19221;SDS011;9745;50.828;4.378;2023-07-22T06:40:54;14.67;;;5.93;;
19221;SDS011;9745;50.828;4.378;2023-07-22T06:43:20;11.40;;;5.37;;
19221;SDS011;9745;50.828;4.378;2023-07-22T06:45:46;10.90;;;5.70;;
19221;SDS011;9745;50.828;4.378;2023-07-22T06:48:12;8.97;;;5.13;;
19221;SDS011;9745;50.828;4.378;2023-07-22T06:50:38;11.80;;;6.20;;
19221;SDS011;9745;50.828;4.378;2023-07-22T06:53:04;8.63;;;5.10;;
19221;SDS011;9745;50.828;4.378;2023-07-22T06:55:30;8.40;;;5.10;;
19221;SDS011;9745;50.828;4.378;2023-07-22T06:57:56;11.00;;;5.40;;
19221;SDS011;9745;50.828;4.378;2023-07-22T07:00:22;9.90;;;5.37;;
19221;SDS011;9745;50.828;4.378;2023-07-22T07:02:49;9.43;;;5.70;;
19221;SDS011;9745;50.828;4.378;2023-07-22T07:05:16;13.37;;;5.37;;
19221;SDS011;9745;50.828;4.378;2023-07-22T07:07:42;10.63;;;5.40;;
19221;SDS011;9745;50.828;4.378;2023-07-22T07:10:08;13.60;;;6.80;;
19221;SDS011;9745;50.828;4.378;2023-07-22T07:12:34;13.33;;;6.00;;
19221;SDS011;9745;50.828;4.378;2023-07-22T07:15:00;16.17;;;5.73;;
19221;SDS011;9745;50.828;4.378;2023-07-22T07:17:26;16.07;;;6.23;;
19221;SDS011;9745;50.828;4.378;2023-07-22T07:19:52;14.97;;;5.37;;
19221;SDS011;9745;50.828;4.378;2023-07-22T07:22:18;9.70;;;4.90;;
19221;SDS011;9745;50.828;4.378;2023-07-22T07:24:44;10.57;;;4.83;;
19221;SDS011;9745;50.828;4.378;2023-07-22T07:27:10;7.07;;;4.23;;
19221;SDS011;9745;50.828;4.378;2023-07-22T07:29:36;8.27;;;4.63;;
19221;SDS011;9745;50.828;4.378;2023-07-22T07:32:03;8.03;;;4.30;;
19221;SDS011;9745;50.828;4.378;2023-07-22T07:34:29;10.07;;;4.60;;
19221;SDS011;9745;50.828;4.378;2023-07-22T07:36:55;11.63;;;5.40;;
19221;SDS011;9745;50.828;4.378;2023-07-22T07:39:21;8.97;;;4.40;;
19221;SDS011;9745;50.828;4.378;2023-07-22T07:41:47;12.37;;;4.50;;
19221;SDS011;9745;50.828;4.378;2023-07-22T07:44:13;7.43;;;4.57;;
19221;SDS011;9745;50.828;4.378;2023-07-22T07:46:39;10.90;;;4.30;;
19221;SDS011;9745;50.828;4.378;2023-07-22T07:49:05;9.63;;;4.33;;
19221;SDS011;9745;50.828;4.378;2023-07-22T07:51:31;9.00;;;4.23;;
19221;SDS011;9745;50.828;4.378;2023-07-22T07:53:58;12.83;;;4.63;;
19221;SDS011;9745;50.828;4.378;2023-07-22T07:56:24;7.60;;;3.83;;
19221;SDS011;9745;50.828;4.378;2023-07-22T07:58:51;10.93;;;4.00;;
19221;SDS011;9745;50.828;4.378;2023-07-22T08:01:18;10.63;;;4.20;;
19221;SDS011;9745;50.828;4.378;2023-07-22T08:03:44;8.80;;;4.17;;
19221;SDS011;9745;50.828;4.378;2023-07-22T08:06:10;7.97;;;3.60;;
19221;SDS011;9745;50.828;4.378;2023-07-22T08:08:37;10.27;;;4.00;;
19221;SDS011;9745;50.828;4.378;2023-07-22T08:11:07;7.73;;;4.07;;
19221;SDS011;9745;50.828;4.378;2023-07-22T08:13:33;7.90;;;4.37;;
19221;SDS011;9745;50.828;4.378;2023-07-22T08:16:06;10.97;;;4.40;;
19221;SDS011;9745;50.828;4.378;2023-07-22T08:18:33;8.97;;;3.90;;
19221;SDS011;9745;50.828;4.378;2023-07-22T08:20:59;8.47;;;3.60;;
19221;SDS011;9745;50.828;4.378;2023-07-22T08:23:25;9.07;;;3.93;;
19221;SDS011;9745;50.828;4.378;2023-07-22T08:25:51;7.47;;;3.77;;
19221;SDS011;9745;50.828;4.378;2023-07-22T08:28:17;8.60;;;3.90;;
19221;SDS011;9745;50.828;4.378;2023-07-22T08:30:45;6.70;;;3.10;;
19221;SDS011;9745;50.828;4.378;2023-07-22T08:33:11;6.93;;;3.63;;
19221;SDS011;9745;50.828;4.378;2023-07-22T08:35:37;7.07;;;3.53;;
19221;SDS011;9745;50.828;4.378;2023-07-22T08:38:04;10.50;;;3.07;;
19221;SDS011;9745;50.828;4.378;2023-07-22T08:40:37;11.53;;;3.10;;
19221;SDS011;9745;50.828;4.378;2023-07-22T08:43:03;7.97;;;3.00;;
19221;SDS011;9745;50.828;4.378;2023-07-22T08:45:30;4.57;;;2.90;;
19221;SDS011;9745;50.828;4.378;2023-07-22T08:48:01;9.83;;;3.40;;
19221;SDS011;9745;50.828;4.378;2023-07-22T08:50:30;6.80;;;2.77;;
19221;SDS011;9745;50.828;4.378;2023-07-22T08:52:56;7.23;;;2.87;;
19221;SDS011;9745;50.828;4.378;2023-07-22T08:55:23;8.27;;;2.90;;
19221;SDS011;9745;50.828;4.378;2023-07-22T08:57:49;6.10;;;2.60;;
19221;SDS011;9745;50.828;4.378;2023-07-22T09:00:16;5.50;;;2.80;;
19221;SDS011;9745;50.828;4.378;2023-07-22T09:02:42;9.70;;;2.50;;
19221;SDS011;9745;50.828;4.378;2023-07-22T09:05:08;4.57;;;2.27;;
19221;SDS011;9745;50.828;4.378;2023-07-22T09:07:35;4.37;;;2.37;;
19221;SDS011;9745;50.828;4.378;2023-07-22T09:10:01;6.27;;;2.47;;
19221;SDS011;9745;50.828;4.378;2023-07-22T09:12:28;7.33;;;2.50;;
19221;SDS011;9745;50.828;4.378;2023-07-22T09:14:54;4.60;;;2.00;;
19221;SDS011;9745;50.828;4.378;2023-07-22T09:17:23;3.60;;;1.83;;
19221;SDS011;9745;50.828;4.378;2023-07-22T09:19:52;5.27;;;1.70;;
19221;SDS011;9745;50.828;4.378;2023-07-22T09:22:24;2.40;;;1.50;;
19221;SDS011;9745;50.828;4.378;2023-07-22T09:24:50;4.27;;;1.73;;
19221;SDS011;9745;50.828;4.378;2023-07-22T09:27:18;3.87;;;1.80;;
19221;SDS011;9745;50.828;4.378;2023-07-22T09:29:58;3.47;;;1.70;;
19221;SDS011;9745;50.828;4.378;2023-07-22T09:32:36;4.20;;;1.63;;
19221;SDS011;9745;50.828;4.378;2023-07-22T09:35:02;3.65;;;1.80;;
19221;SDS011;9745;50.828;4.378;2023-07-22T09:37:38;3.42;;;1.65;;
19221;SDS011;9745;50.828;4.378;2023-07-22T09:40:13;5.03;;;1.75;;
19221;SDS011;9745;50.828;4.378;2023-07-22T09:42:42;4.13;;;1.80;;
19221;SDS011;9745;50.828;4.378;2023-07-22T09:45:08;4.00;;;1.73;;
19221;SDS011;9745;50.828;4.378;2023-07-22T09:47:44;6.38;;;1.42;;
19221;SDS011;9745;50.828;4.378;2023-07-22T09:50:10;2.13;;;1.15;;
19221;SDS011;9745;50.828;4.378;2023-07-22T09:52:41;8.18;;;1.30;;
19221;SDS011;9745;50.828;4.378;2023-07-22T09:55:07;4.05;;;1.60;;
19221;SDS011;9745;50.828;4.378;2023-07-22T09:57:33;3.28;;;1.17;;
19221;SDS011;9745;50.828;4.378;2023-07-22T09:59:59;3.83;;;1.80;;
19221;SDS011;9745;50.828;4.378;2023-07-22T10:02:25;2.85;;;1.25;;
19221;SDS011;9745;50.828;4.378;2023-07-22T10:04:52;1.60;;;1.20;;
19221;SDS011;9745;50.828;4.378;2023-07-22T10:07:18;2.63;;;1.55;;
19221;SDS011;9745;50.828;4.378;2023-07-22T10:09:45;2.95;;;2.22;;
19221;SDS011;9745;50.828;4.378;2023-07-22T10:12:11;2.70;;;1.38;;
19221;SDS011;9745;50.828;4.378;2023-07-22T10:14:39;3.83;;;1.52;;
19221;SDS011;9745;50.828;4.378;2023-07-22T10:17:06;3.03;;;1.40;;
19221;SDS011;9745;50.828;4.378;2023-07-22T10:19:34;3.65;;;1.33;;
19221;SDS011;9745;50.828;4.378;2023-07-22T10:22:00;2.42;;;1.20;;
19221;SDS011;9745;50.828;4.378;2023-07-22T10:24:27;1.60;;;1.20;;
19221;SDS011;9745;50.828;4.378;2023-07-22T10:26:53;4.27;;;1.30;;
19221;SDS011;9745;50.828;4.378;2023-07-22T10:29:19;5.90;;;1.30;;
19221;SDS011;9745;50.828;4.378;2023-07-22T10:31:45;3.13;;;1.60;;
19221;SDS011;9745;50.828;4.378;2023-07-22T10:34:20;2.60;;;1.40;;
19221;SDS011;9745;50.828;4.378;2023-07-22T10:36:47;2.70;;;1.37;;
19221;SDS011;9745;50.828;4.378;2023-07-22T10:39:17;3.47;;;1.57;;
19221;SDS011;9745;50.828;4.378;2023-07-22T10:41:50;1.60;;;1.20;;
19221;SDS011;9745;50.828;4.378;2023-07-22T10:44:25;2.53;;;1.33;;
19221;SDS011;9745;50.828;4.378;2023-07-22T10:46:57;2.53;;;1.57;;
19221;SDS011;9745;50.828;4.378;2023-07-22T10:49:24;5.50;;;1.43;;
19221;SDS011;9745;50.828;4.378;2023-07-22T10:51:51;2.80;;;1.50;;
19221;SDS011;9745;50.828;4.378;2023-07-22T10:54:35;3.80;;;1.60;;
19221;SDS011;9745;50.828;4.378;2023-07-22T10:57:43;3.70;;;1.57;;
19221;SDS011;9745;50.828;4.378;2023-07-22T10:59:51;2.27;;;1.27;;
19221;SDS011;9745;50.828;4.378;2023-07-22T11:02:26;2.13;;;1.43;;
19221;SDS011;9745;50.828;4.378;2023-07-22T11:04:55;2.50;;;1.43;;
19221;SDS011;9745;50.828;4.378;2023-07-22T11:07:31;2.23;;;1.73;;
19221;SDS011;9745;50.828;4.378;2023-07-22T11:09:57;1.87;;;1.43;;
19221;SDS011;9745;50.828;4.378;2023-07-22T11:12:24;3.33;;;1.67;;
19221;SDS011;9745;50.828;4.378;2023-07-22T11:14:51;4.27;;;1.63;;
19221;SDS011;9745;50.828;4.378;2023-07-22T11:17:18;5.70;;;3.40;;
19221;SDS011;9745;50.828;4.378;2023-07-22T11:19:44;4.20;;;2.50;;
19221;SDS011;9745;50.828;4.378;2023-07-22T11:22:10;3.47;;;2.27;;
19221;SDS011;9745;50.828;4.378;2023-07-22T11:24:37;4.53;;;1.90;;
19221;SDS011;9745;50.828;4.378;2023-07-22T11:27:07;3.97;;;2.00;;
19221;SDS011;9745;50.828;4.378;2023-07-22T11:29:33;3.87;;;2.10;;
19221;SDS011;9745;50.828;4.378;2023-07-22T11:32:00;2.70;;;2.07;;
19221;SDS011;9745;50.828;4.378;2023-07-22T11:34:26;3.53;;;1.73;;
19221;SDS011;9745;50.828;4.378;2023-07-22T11:36:52;2.17;;;1.80;;
19221;SDS011;9745;50.828;4.378;2023-07-22T11:39:23;2.63;;;1.60;;
19221;SDS011;9745;50.828;4.378;2023-07-22T11:41:49;3.67;;;1.80;;
19221;SDS011;9745;50.828;4.378;2023-07-22T11:44:19;3.83;;;1.67;;
19221;SDS011;9745;50.828;4.378;2023-07-22T11:46:51;4.03;;;1.47;;
19221;SDS011;9745;50.828;4.378;2023-07-22T11:51:56;3.60;;;1.60;;
19221;SDS011;9745;50.828;4.378;2023-07-22T11:54:22;6.00;;;2.17;;
19221;SDS011;9745;50.828;4.378;2023-07-22T11:56:48;2.67;;;1.67;;
19221;SDS011;9745;50.828;4.378;2023-07-22T11:59:14;2.47;;;1.40;;
19221;SDS011;9745;50.828;4.378;2023-07-22T12:01:42;3.07;;;1.60;;
19221;SDS011;9745;50.828;4.378;2023-07-22T12:04:14;5.20;;;2.00;;
19221;SDS011;9745;50.828;4.378;2023-07-22T12:06:40;6.30;;;1.50;;
19221;SDS011;9745;50.828;4.378;2023-07-22T12:09:07;2.93;;;2.20;;
19221;SDS011;9745;50.828;4.378;2023-07-22T12:11:34;4.73;;;1.60;;
19221;SDS011;9745;50.828;4.378;2023-07-22T12:14:04;3.50;;;1.63;;
19221;SDS011;9745;50.828;4.378;2023-07-22T12:16:30;4.50;;;1.63;;
19221;SDS011;9745;50.828;4.378;2023-07-22T12:18:56;5.83;;;1.50;;
19221;SDS011;9745;50.828;4.378;2023-07-22T12:21:22;2.77;;;1.60;;
19221;SDS011;9745;50.828;4.378;2023-07-22T12:23:48;3.10;;;1.47;;
19221;SDS011;9745;50.828;4.378;2023-07-22T12:26:14;5.73;;;1.83;;
19221;SDS011;9745;50.828;4.378;2023-07-22T12:28:40;5.77;;;2.03;;
19221;SDS011;9745;50.828;4.378;2023-07-22T12:31:06;3.83;;;2.33;;
19221;SDS011;9745;50.828;4.378;2023-07-22T12:33:32;4.03;;;1.60;;
19221;SDS011;9745;50.828;4.378;2023-07-22T12:35:58;4.33;;;1.30;;
19221;SDS011;9745;50.828;4.378;2023-07-22T12:38:24;2.60;;;1.47;;
19221;SDS011;9745;50.828;4.378;2023-07-22T12:40:50;4.87;;;1.73;;
19221;SDS011;9745;50.828;4.378;2023-07-22T12:43:16;3.67;;;1.30;;
19221;SDS011;9745;50.828;4.378;2023-07-22T12:45:42;3.33;;;1.13;;
19221;SDS011;9745;50.828;4.378;2023-07-22T12:48:08;3.73;;;1.37;;
19221;SDS011;9745;50.828;4.378;2023-07-22T12:50:34;2.20;;;1.40;;
19221;SDS011;9745;50.828;4.378;2023-07-22T12:53:00;4.53;;;1.87;;
19221;SDS011;9745;50.828;4.378;2023-07-22T12:55:26;1.63;;;1.33;;
19221;SDS011;9745;50.828;4.378;2023-07-22T12:57:53;2.00;;;1.10;;
19221;SDS011;9745;50.828;4.378;2023-07-22T13:00:19;3.17;;;1.50;;
19221;SDS011;9745;50.828;4.378;2023-07-22T13:02:46;1.70;;;1.50;;
19221;SDS011;9745;50.828;4.378;2023-07-22T13:05:11;3.47;;;1.40;;
19221;SDS011;9745;50.828;4.378;2023-07-22T13:07:38;3.47;;;1.70;;
19221;SDS011;9745;50.828;4.378;2023-07-22T13:10:04;3.63;;;1.80;;
19221;SDS011;9745;50.828;4.378;2023-07-22T13:12:31;6.87;;;1.63;;
19221;SDS011;9745;50.828;4.378;2023-07-22T13:14:57;3.10;;;1.77;;
19221;SDS011;9745;50.828;4.378;2023-07-22T13:17:23;5.97;;;1.60;;
19221;SDS011;9745;50.828;4.378;2023-07-22T13:19:49;3.73;;;1.73;;
19221;SDS011;9745;50.828;4.378;2023-07-22T13:22:15;5.90;;;1.97;;
19221;SDS011;9745;50.828;4.378;2023-07-22T13:24:41;3.70;;;1.47;;
19221;SDS011;9745;50.828;4.378;2023-07-22T13:27:07;2.00;;;1.40;;
19221;SDS011;9745;50.828;4.378;2023-07-22T13:29:33;3.47;;;1.40;;
19221;SDS011;9745;50.828;4.378;2023-07-22T13:32:01;3.07;;;1.90;;
19221;SDS011;9745;50.828;4.378;2023-07-22T13:34:27;5.53;;;1.90;;
19221;SDS011;9745;50.828;4.378;2023-07-22T13:36:53;5.47;;;1.67;;
19221;SDS011;9745;50.828;4.378;2023-07-22T13:39:19;2.33;;;1.27;;
19221;SDS011;9745;50.828;4.378;2023-07-22T13:41:45;3.07;;;1.93;;
19221;SDS011;9745;50.828;4.378;2023-07-22T13:44:12;2.50;;;1.27;;
19221;SDS011;9745;50.828;4.378;2023-07-22T13:46:38;3.33;;;1.50;;
19221;SDS011;9745;50.828;4.378;2023-07-22T13:49:04;4.67;;;2.03;;
19221;SDS011;9745;50.828;4.378;2023-07-22T13:51:30;8.53;;;1.80;;
19221;SDS011;9745;50.828;4.378;2023-07-22T13:53:59;4.93;;;1.63;;
19221;SDS011;9745;50.828;4.378;2023-07-22T13:56:25;3.67;;;2.00;;
19221;SDS011;9745;50.828;4.378;2023-07-22T13:58:53;5.07;;;1.70;;
19221;SDS011;9745;50.828;4.378;2023-07-22T14:01:19;3.90;;;1.77;;
19221;SDS011;9745;50.828;4.378;2023-07-22T14:03:45;4.43;;;1.47;;
19221;SDS011;9745;50.828;4.378;2023-07-22T14:06:11;4.13;;;1.90;;
19221;SDS011;9745;50.828;4.378;2023-07-22T14:08:38;2.83;;;1.70;;
19221;SDS011;9745;50.828;4.378;2023-07-22T14:11:04;2.60;;;1.50;;
19221;SDS011;9745;50.828;4.378;2023-07-22T14:13:30;3.80;;;1.70;;
19221;SDS011;9745;50.828;4.378;2023-07-22T14:15:56;3.47;;;1.70;;
19221;SDS011;9745;50.828;4.378;2023-07-22T14:18:22;6.33;;;2.30;;
19221;SDS011;9745;50.828;4.378;2023-07-22T14:20:48;2.47;;;1.43;;
19221;SDS011;9745;50.828;4.378;2023-07-22T14:23:15;2.83;;;1.70;;
19221;SDS011;9745;50.828;4.378;2023-07-22T14:25:41;4.63;;;1.80;;
19221;SDS011;9745;50.828;4.378;2023-07-22T14:28:07;3.63;;;1.60;;
19221;SDS011;9745;50.828;4.378;2023-07-22T14:30:33;7.07;;;1.70;;
19221;SDS011;9745;50.828;4.378;2023-07-22T14:32:59;3.40;;;1.67;;
19221;SDS011;9745;50.828;4.378;2023-07-22T14:35:25;2.63;;;1.47;;
19221;SDS011;9745;50.828;4.378;2023-07-22T14:37:51;4.60;;;1.47;;
19221;SDS011;9745;50.828;4.378;2023-07-22T14:40:17;2.33;;;1.40;;
19221;SDS011;9745;50.828;4.378;2023-07-22T14:42:43;3.97;;;1.60;;
19221;SDS011;9745;50.828;4.378;2023-07-22T14:45:09;3.97;;;1.60;;
19221;SDS011;9745;50.828;4.378;2023-07-22T14:47:35;4.60;;;1.47;;
19221;SDS011;9745;50.828;4.378;2023-07-22T14:50:01;3.13;;;1.30;;
19221;SDS011;9745;50.828;4.378;2023-07-22T14:52:27;3.97;;;1.50;;
19221;SDS011;9745;50.828;4.378;2023-07-22T14:54:53;3.37;;;1.50;;